createdAt,value
2019-01-23T00:00:32.740Z,14.35
2019-01-23T00:01:37.417Z,13.30
2019-01-23T00:02:41.920Z,12.97
2019-01-23T00:03:46.415Z,14.73
2019-01-23T00:04:51.646Z,14.47
2019-01-23T00:05:56.205Z,14.90
2019-01-23T00:07:00.773Z,14.23
2019-01-23T00:08:05.572Z,14.50
2019-01-23T00:09:10.102Z,13.88
2019-01-23T00:10:14.712Z,13.65
2019-01-23T00:11:19.238Z,14.68
2019-01-23T00:12:23.793Z,13.43
2019-01-23T00:13:28.261Z,14.03
2019-01-23T00:14:32.768Z,12.97
2019-01-23T00:15:37.254Z,14.13
2019-01-23T00:16:41.774Z,13.63
2019-01-23T00:17:46.283Z,13.23
2019-01-23T00:18:50.966Z,12.82
2019-01-23T00:19:57.056Z,13.40
2019-01-23T00:21:03.051Z,13.18
2019-01-23T00:22:07.614Z,13.08
2019-01-23T00:23:14.131Z,13.60
2019-01-23T00:24:18.450Z,13.08
2019-01-23T00:25:22.964Z,13.73
2019-01-23T00:26:27.455Z,14.27
2019-01-23T00:27:31.989Z,15.18
2019-01-23T00:28:42.221Z,13.65
2019-01-23T00:29:42.759Z,15.03
2019-01-23T00:30:47.290Z,13.55
2019-01-23T00:31:51.826Z,13.98
2019-01-23T00:32:56.347Z,13.53
2019-01-23T00:34:00.883Z,13.93
2019-01-23T00:35:06.237Z,12.90
2019-01-23T00:36:10.749Z,14.63
2019-01-23T00:37:15.272Z,13.57
2019-01-23T00:38:19.881Z,14.05
2019-01-23T00:39:25.421Z,14.23
2019-01-23T00:40:29.918Z,14.17
2019-01-23T00:41:36.537Z,13.53
2019-01-23T00:42:41.041Z,12.57
2019-01-23T00:43:46.801Z,13.58
2019-01-23T00:44:51.285Z,12.40
2019-01-23T00:45:55.822Z,13.50
2019-01-23T00:47:00.411Z,13.48
2019-01-23T00:48:05.027Z,13.75
2019-01-23T00:49:09.637Z,14.58
2019-01-23T00:50:15.487Z,13.93
2019-01-23T00:51:20.019Z,12.90
2019-01-23T00:52:24.563Z,11.93
2019-01-23T00:53:29.058Z,13.33
2019-01-23T00:54:33.761Z,14.03
2019-01-23T00:55:38.280Z,15.32
2019-01-23T00:56:42.801Z,13.17
2019-01-23T00:57:47.298Z,12.67
2019-01-23T00:58:51.799Z,12.27
2019-01-23T00:59:56.319Z,12.50
2019-01-23T01:01:00.831Z,12.60
2019-01-23T01:02:05.807Z,13.83
2019-01-23T01:03:10.570Z,13.10
2019-01-23T01:04:15.068Z,13.80
2019-01-23T01:05:21.483Z,13.32
2019-01-23T01:06:26.932Z,12.68
2019-01-23T01:07:31.933Z,13.40
2019-01-23T01:08:36.478Z,12.53
2019-01-23T01:09:41.008Z,14.15
2019-01-23T01:10:45.534Z,14.85
2019-01-23T01:11:50.086Z,14.65
2019-01-23T01:12:54.667Z,14.70
2019-01-23T01:13:59.171Z,14.33
2019-01-23T01:15:05.196Z,14.43
2019-01-23T01:16:09.721Z,14.45
2019-01-23T01:17:14.277Z,14.03
2019-01-23T01:18:18.872Z,14.50
2019-01-23T01:19:23.481Z,13.90
2019-01-23T01:20:28.046Z,13.00
2019-01-23T01:21:32.568Z,13.40
2019-01-23T01:22:38.818Z,13.77
2019-01-23T01:23:43.331Z,13.57
2019-01-23T01:24:47.948Z,13.25
2019-01-23T01:25:52.474Z,14.77
2019-01-23T01:26:57.058Z,13.53
2019-01-23T01:28:01.639Z,13.38
2019-01-23T01:29:06.285Z,13.68
2019-01-23T01:30:13.820Z,14.00
2019-01-23T01:31:18.420Z,14.23
2019-01-23T01:32:22.937Z,13.87
2019-01-23T01:33:27.460Z,14.57
2019-01-23T01:34:31.992Z,14.07
2019-01-23T01:35:36.517Z,14.55
2019-01-23T01:36:41.060Z,14.95
2019-01-23T01:37:45.702Z,14.97
2019-01-23T01:38:50.253Z,14.63
2019-01-23T01:39:54.810Z,15.35
2019-01-23T01:40:59.338Z,14.33
2019-01-23T01:42:03.975Z,14.07
2019-01-23T01:43:08.509Z,13.88
2019-01-23T01:44:13.084Z,13.25
2019-01-23T01:45:17.952Z,14.53
2019-01-23T01:46:22.458Z,14.83
2019-01-23T01:47:27.054Z,15.18
2019-01-23T01:48:31.584Z,15.65
2019-01-23T01:49:36.211Z,15.30
2019-01-23T01:50:40.777Z,14.55
2019-01-23T01:51:45.335Z,14.70
2019-01-23T01:52:49.933Z,14.03
2019-01-23T01:53:54.564Z,15.25
2019-01-23T01:54:59.085Z,13.15
2019-01-23T01:56:03.593Z,12.47
2019-01-23T01:57:08.132Z,14.40
2019-01-23T01:58:12.679Z,13.32
2019-01-23T01:59:17.200Z,13.98
2019-01-23T02:00:24.718Z,14.53
2019-01-23T02:01:29.269Z,13.90
2019-01-23T02:02:33.863Z,14.55
2019-01-23T02:03:38.415Z,14.53
2019-01-23T02:04:42.918Z,15.37
2019-01-23T02:05:47.539Z,13.80
2019-01-23T02:06:52.161Z,13.80
2019-01-23T02:07:56.679Z,14.40
2019-01-23T02:09:04.276Z,14.58
2019-01-23T02:10:11.614Z,13.45
2019-01-23T02:11:16.143Z,13.15
2019-01-23T02:12:20.684Z,13.18
2019-01-23T02:13:25.477Z,13.80
2019-01-23T02:14:30.164Z,13.20
2019-01-23T02:15:34.689Z,14.40
2019-01-23T02:16:39.190Z,13.80
2019-01-23T02:17:43.748Z,14.33
2019-01-23T02:18:48.272Z,14.43
2019-01-23T02:19:53.066Z,14.77
2019-01-23T02:20:57.594Z,14.07
2019-01-23T02:22:02.380Z,14.38
2019-01-23T02:23:06.951Z,14.18
2019-01-23T02:24:11.510Z,14.67
2019-01-23T02:25:16.241Z,14.17
2019-01-23T02:26:20.766Z,15.30
2019-01-23T02:27:25.307Z,14.10
2019-01-23T02:28:29.830Z,14.10
2019-01-23T02:29:34.356Z,13.93
2019-01-23T02:30:38.908Z,14.93
2019-01-23T02:31:43.463Z,13.98
2019-01-23T02:32:48.047Z,14.83
2019-01-23T02:33:52.760Z,14.15
2019-01-23T02:34:57.306Z,14.75
2019-01-23T02:36:01.848Z,14.43
2019-01-23T02:37:06.378Z,14.03
2019-01-23T02:38:16.573Z,13.83
2019-01-23T02:39:21.110Z,14.60
2019-01-23T02:40:25.626Z,14.23
2019-01-23T02:41:30.136Z,12.87
2019-01-23T02:42:34.671Z,14.60
2019-01-23T02:43:39.191Z,14.13
2019-01-23T02:44:43.704Z,16.00
2019-01-23T02:45:48.182Z,14.67
2019-01-23T02:46:52.735Z,14.27
2019-01-23T02:47:57.273Z,15.07
2019-01-23T02:49:01.758Z,15.13
2019-01-23T02:50:08.586Z,15.17
2019-01-23T02:51:13.408Z,15.48
2019-01-23T02:52:18.594Z,16.15
2019-01-23T02:53:23.161Z,15.08
2019-01-23T02:54:27.693Z,15.43
2019-01-23T02:55:33.981Z,15.05
2019-01-23T02:56:38.568Z,15.80
2019-01-23T02:57:43.304Z,14.50
2019-01-23T02:58:47.846Z,14.98
2019-01-23T02:59:52.420Z,13.30
2019-01-23T03:00:56.950Z,15.85
2019-01-23T03:02:01.449Z,15.93
2019-01-23T03:03:06.041Z,15.43
2019-01-23T03:04:12.629Z,14.07
2019-01-23T03:05:18.792Z,14.90
2019-01-23T03:06:23.311Z,15.17
2019-01-23T03:07:27.873Z,14.87
2019-01-23T03:08:32.421Z,14.65
2019-01-23T03:09:37.592Z,14.40
2019-01-23T03:10:42.132Z,14.90
2019-01-23T03:11:46.668Z,14.87
2019-01-23T03:12:51.214Z,16.30
2019-01-23T03:13:55.751Z,16.12
2019-01-23T03:15:00.357Z,15.50
2019-01-23T03:16:05.054Z,16.05
2019-01-23T03:17:09.541Z,15.07
2019-01-23T03:18:14.053Z,15.30
2019-01-23T03:19:18.791Z,15.60
2019-01-23T03:20:23.510Z,14.68
2019-01-23T03:21:28.035Z,15.08
2019-01-23T03:22:32.531Z,16.17
2019-01-23T03:23:37.114Z,15.50
2019-01-23T03:24:41.614Z,14.63
2019-01-23T03:25:46.125Z,14.40
2019-01-23T03:26:50.637Z,13.75
2019-01-23T03:27:55.146Z,15.03
2019-01-23T03:28:59.667Z,14.10
2019-01-23T03:30:07.354Z,14.40
2019-01-23T03:31:12.274Z,13.43
2019-01-23T03:32:16.787Z,13.53
2019-01-23T03:33:21.329Z,13.93
2019-01-23T03:34:25.879Z,14.78
2019-01-23T03:35:30.422Z,14.85
2019-01-23T03:36:34.966Z,15.05
2019-01-23T03:37:39.477Z,14.50
2019-01-23T03:38:44.475Z,14.80
2019-01-23T03:39:49.016Z,14.70
2019-01-23T03:40:53.534Z,15.13
2019-01-23T03:41:58.044Z,14.78
2019-01-23T03:43:02.532Z,14.33
2019-01-23T03:44:08.800Z,15.60
2019-01-23T03:45:15.026Z,15.57
2019-01-23T03:46:19.600Z,15.15
2019-01-23T03:47:24.134Z,15.88
2019-01-23T03:48:28.635Z,15.97
2019-01-23T03:49:33.122Z,15.30
2019-01-23T03:50:37.619Z,15.27
2019-01-23T03:51:42.232Z,15.15
2019-01-23T03:52:46.843Z,15.30
2019-01-23T03:53:51.370Z,15.15
2019-01-23T03:54:56.141Z,15.78
2019-01-23T03:56:00.667Z,14.18
2019-01-23T03:57:05.278Z,15.32
2019-01-23T03:58:09.818Z,15.17
2019-01-23T03:59:14.403Z,13.87
2019-01-23T04:00:20.770Z,15.88
2019-01-23T04:01:25.285Z,15.33
2019-01-23T04:02:32.254Z,14.80
2019-01-23T04:03:36.871Z,13.50
2019-01-23T04:04:41.483Z,14.30
2019-01-23T04:05:46.209Z,14.57
2019-01-23T04:06:50.653Z,15.13
2019-01-23T04:07:55.146Z,14.03
2019-01-23T04:08:59.781Z,15.65
2019-01-23T04:10:07.407Z,14.23
2019-01-23T04:11:13.128Z,14.28
2019-01-23T04:12:17.651Z,14.05
2019-01-23T04:13:23.743Z,13.48
2019-01-23T04:14:28.269Z,14.03
2019-01-23T04:15:32.871Z,13.50
2019-01-23T04:16:37.390Z,14.43
2019-01-23T04:17:42.232Z,13.73
2019-01-23T04:18:46.747Z,14.43
2019-01-23T04:19:51.270Z,13.60
2019-01-23T04:20:55.752Z,14.13
2019-01-23T04:22:00.291Z,13.60
2019-01-23T04:23:04.858Z,14.53
2019-01-23T04:24:09.663Z,15.58
2019-01-23T04:25:14.693Z,13.77
2019-01-23T04:26:19.237Z,13.87
2019-01-23T04:27:23.870Z,14.50
2019-01-23T04:28:28.358Z,13.70
2019-01-23T04:29:39.286Z,13.60
2019-01-23T04:30:39.637Z,15.35
2019-01-23T04:31:44.185Z,14.45
2019-01-23T04:32:48.725Z,14.05
2019-01-23T04:33:53.254Z,14.38
2019-01-23T04:34:57.787Z,14.83
2019-01-23T04:36:02.319Z,13.98
2019-01-23T04:37:06.937Z,15.58
2019-01-23T04:38:11.446Z,15.00
2019-01-23T04:39:15.926Z,14.33
2019-01-23T04:40:22.301Z,14.18
2019-01-23T04:41:26.789Z,15.50
2019-01-23T04:42:32.621Z,15.75
2019-01-23T04:43:37.158Z,14.10
2019-01-23T04:44:41.732Z,14.00
2019-01-23T04:45:46.240Z,14.47
2019-01-23T04:46:50.843Z,13.53
2019-01-23T04:47:55.341Z,14.47
2019-01-23T04:48:59.881Z,14.40
2019-01-23T04:50:07.311Z,14.90
2019-01-23T04:51:13.479Z,15.17
2019-01-23T04:52:19.741Z,16.35
2019-01-23T04:53:25.948Z,14.50
2019-01-23T04:54:30.491Z,14.75
2019-01-23T04:55:35.992Z,15.18
2019-01-23T04:56:40.543Z,15.60
2019-01-23T04:57:45.066Z,16.32
2019-01-23T04:58:50.175Z,15.17
2019-01-23T04:59:54.686Z,16.33
2019-01-23T05:00:59.233Z,15.00
2019-01-23T05:02:06.724Z,15.87
2019-01-23T05:03:11.229Z,16.03
2019-01-23T05:04:15.939Z,15.83
2019-01-23T05:05:20.553Z,15.47
2019-01-23T05:06:25.065Z,15.33
2019-01-23T05:07:29.731Z,15.10
2019-01-23T05:08:34.232Z,15.00
2019-01-23T05:09:38.786Z,15.53
2019-01-23T05:10:43.310Z,16.07
2019-01-23T05:11:49.390Z,13.60
2019-01-23T05:12:53.955Z,15.78
2019-01-23T05:13:58.501Z,15.70
2019-01-23T05:15:03.387Z,15.25
2019-01-23T05:16:07.927Z,14.43
2019-01-23T05:17:12.458Z,15.18
2019-01-23T05:18:16.953Z,15.97
2019-01-23T05:19:21.467Z,16.23
2019-01-23T05:20:25.981Z,15.00
2019-01-23T05:21:30.603Z,15.73
2019-01-23T05:22:35.115Z,15.83
2019-01-23T05:23:41.247Z,14.77
2019-01-23T05:24:45.752Z,14.60
2019-01-23T05:25:51.306Z,15.70
2019-01-23T05:26:55.859Z,15.70
2019-01-23T05:28:00.365Z,16.73
2019-01-23T05:29:05.011Z,15.05
2019-01-23T05:30:15.109Z,15.57
2019-01-23T05:31:20.685Z,14.90
2019-01-23T05:32:25.211Z,14.93
2019-01-23T05:33:29.761Z,15.98
2019-01-23T05:34:34.386Z,15.03
2019-01-23T05:35:38.928Z,15.18
2019-01-23T05:36:44.449Z,15.17
2019-01-23T05:37:48.963Z,16.47
2019-01-23T05:38:53.441Z,16.43
2019-01-23T05:39:57.947Z,16.50
2019-01-23T05:41:02.481Z,15.13
2019-01-23T05:42:07.495Z,15.63
2019-01-23T05:43:12.118Z,15.63
2019-01-23T05:44:16.630Z,15.33
2019-01-23T05:45:21.285Z,15.33
2019-01-23T05:46:25.825Z,14.60
2019-01-23T05:47:30.414Z,17.30
2019-01-23T05:48:34.902Z,16.20
2019-01-23T05:49:39.409Z,16.97
2019-01-23T05:50:43.909Z,17.07
2019-01-23T05:51:48.443Z,16.25
2019-01-23T05:52:52.993Z,16.12
2019-01-23T05:53:57.534Z,15.95
2019-01-23T05:55:02.061Z,15.83
2019-01-23T05:56:06.711Z,18.48
2019-01-23T05:57:11.335Z,16.62
2019-01-23T05:58:17.461Z,17.07
2019-01-23T05:59:21.974Z,16.80
2019-01-23T06:00:26.641Z,16.97
2019-01-23T06:01:31.175Z,18.00
2019-01-23T06:02:37.259Z,17.23
2019-01-23T06:03:41.855Z,16.85
2019-01-23T06:04:46.441Z,18.50
2019-01-23T06:05:51.020Z,17.33
2019-01-23T06:06:55.516Z,16.63
2019-01-23T06:08:00.026Z,17.00
2019-01-23T06:09:07.485Z,18.23
2019-01-23T06:10:12.200Z,17.70
2019-01-23T06:11:16.728Z,19.77
2019-01-23T06:12:21.291Z,18.35
2019-01-23T06:13:28.794Z,17.75
2019-01-23T06:14:33.327Z,18.42
2019-01-23T06:15:37.867Z,19.05
2019-01-23T06:16:42.423Z,19.17
2019-01-23T06:17:47.072Z,19.10
2019-01-23T06:18:52.913Z,18.82
2019-01-23T06:19:57.601Z,18.35
2019-01-23T06:21:02.866Z,18.17
2019-01-23T06:22:11.430Z,18.87
2019-01-23T06:23:16.030Z,19.48
2019-01-23T06:24:20.560Z,18.47
2019-01-23T06:25:25.926Z,18.03
2019-01-23T06:26:31.211Z,18.70
2019-01-23T06:27:36.780Z,18.75
2019-01-23T06:28:41.591Z,18.15
2019-01-23T06:29:47.726Z,18.95
2019-01-23T06:30:52.296Z,18.02
2019-01-23T06:31:56.872Z,18.25
2019-01-23T06:33:02.964Z,17.60
2019-01-23T06:34:08.045Z,17.15
2019-01-23T06:35:12.744Z,17.85
2019-01-23T06:36:17.301Z,18.23
2019-01-23T06:37:22.470Z,17.67
2019-01-23T06:38:26.971Z,17.97
2019-01-23T06:39:31.558Z,17.70
2019-01-23T06:40:36.089Z,18.80
2019-01-23T06:41:40.611Z,16.90
2019-01-23T06:42:46.827Z,16.57
2019-01-23T06:43:51.374Z,16.60
2019-01-23T06:44:55.883Z,16.87
2019-01-23T06:46:00.426Z,18.37
2019-01-23T06:47:04.970Z,16.93
2019-01-23T06:48:09.627Z,17.37
2019-01-23T06:49:14.190Z,17.93
2019-01-23T06:50:22.437Z,16.93
2019-01-23T06:51:27.079Z,16.77
2019-01-23T06:52:31.605Z,16.35
2019-01-23T06:53:36.142Z,17.20
2019-01-23T06:54:40.692Z,18.48
2019-01-23T06:55:45.308Z,18.00
2019-01-23T06:56:49.889Z,18.00
2019-01-23T06:57:54.649Z,17.23
2019-01-23T06:59:00.758Z,17.65
2019-01-23T07:00:17.244Z,17.87
2019-01-23T07:01:20.212Z,16.70
2019-01-23T07:02:24.770Z,15.73
2019-01-23T07:03:29.373Z,17.47
2019-01-23T07:04:33.899Z,17.35
2019-01-23T07:05:38.778Z,17.07
2019-01-23T07:06:43.307Z,17.60
2019-01-23T07:07:47.889Z,17.75
2019-01-23T07:08:52.410Z,17.25
2019-01-23T07:09:56.953Z,17.85
2019-01-23T07:11:01.457Z,17.62
2019-01-23T07:12:06.153Z,18.77
2019-01-23T07:13:10.706Z,16.30
2019-01-23T07:14:15.224Z,16.47
2019-01-23T07:15:20.341Z,17.42
2019-01-23T07:16:25.853Z,16.33
2019-01-23T07:17:31.015Z,17.20
2019-01-23T07:18:35.590Z,16.30
2019-01-23T07:19:40.125Z,17.13
2019-01-23T07:20:44.669Z,16.07
2019-01-23T07:21:49.231Z,15.93
2019-01-23T07:22:53.894Z,17.40
2019-01-23T07:23:58.709Z,15.73
2019-01-23T07:25:03.808Z,16.27
2019-01-23T07:26:08.417Z,15.32
2019-01-23T07:27:12.986Z,16.60
2019-01-23T07:28:17.811Z,16.37
2019-01-23T07:29:22.830Z,16.20
2019-01-23T07:30:36.132Z,16.95
2019-01-23T07:31:40.764Z,15.25
2019-01-23T07:32:45.238Z,15.20
2019-01-23T07:33:49.855Z,16.30
2019-01-23T07:34:54.423Z,16.62
2019-01-23T07:35:58.937Z,16.03
2019-01-23T07:37:03.667Z,17.30
2019-01-23T07:38:08.276Z,16.73
2019-01-23T07:39:12.936Z,16.43
2019-01-23T07:40:19.513Z,16.93
2019-01-23T07:41:24.120Z,16.57
2019-01-23T07:42:28.783Z,15.90
2019-01-23T07:43:33.296Z,15.90
2019-01-23T07:44:37.822Z,17.50
2019-01-23T07:45:42.677Z,15.88
2019-01-23T07:46:48.664Z,16.60
2019-01-23T07:47:53.239Z,15.75
2019-01-23T07:48:57.863Z,16.35
2019-01-23T07:50:02.419Z,17.67
2019-01-23T07:51:07.004Z,16.37
2019-01-23T07:52:12.595Z,17.75
2019-01-23T07:53:17.386Z,16.13
2019-01-23T07:54:21.863Z,17.23
2019-01-23T07:55:26.853Z,16.47
2019-01-23T07:56:32.152Z,16.97
2019-01-23T07:57:36.838Z,14.70
2019-01-23T07:58:41.401Z,16.23
2019-01-23T07:59:45.905Z,16.07
2019-01-23T08:00:52.005Z,15.73
2019-01-23T08:01:56.606Z,14.57
2019-01-23T08:03:01.176Z,14.40
2019-01-23T08:04:05.710Z,14.60
2019-01-23T08:05:19.233Z,16.05
2019-01-23T08:06:19.789Z,14.47
2019-01-23T08:07:24.311Z,15.40
2019-01-23T08:08:30.523Z,15.38
2019-01-23T08:09:35.051Z,16.80
2019-01-23T08:10:39.596Z,15.15
2019-01-23T08:11:44.097Z,15.40
2019-01-23T08:12:48.766Z,15.80
2019-01-23T08:13:54.006Z,16.50
2019-01-23T08:14:58.969Z,16.43
2019-01-23T08:16:03.453Z,16.73
2019-01-23T08:17:08.532Z,17.10
2019-01-23T08:18:13.098Z,17.07
2019-01-23T08:19:17.615Z,17.90
2019-01-23T08:20:25.702Z,17.27
2019-01-23T08:21:30.216Z,16.97
2019-01-23T08:22:34.735Z,16.52
2019-01-23T08:23:40.910Z,16.50
2019-01-23T08:24:45.476Z,17.30
2019-01-23T08:25:50.002Z,17.67
2019-01-23T08:26:54.598Z,18.15
2019-01-23T08:27:59.509Z,16.80
2019-01-23T08:29:04.081Z,16.65
2019-01-23T08:30:11.994Z,17.15
2019-01-23T08:31:16.520Z,16.50
2019-01-23T08:32:22.101Z,15.77
2019-01-23T08:33:26.608Z,16.90
2019-01-23T08:34:31.094Z,17.57
2019-01-23T08:35:35.653Z,16.87
2019-01-23T08:36:40.389Z,16.67
2019-01-23T08:37:44.982Z,17.10
2019-01-23T08:38:49.722Z,17.30
2019-01-23T08:39:54.275Z,17.60
2019-01-23T08:40:58.902Z,16.73
2019-01-23T08:42:03.573Z,17.33
2019-01-23T08:43:08.182Z,16.85
2019-01-23T08:44:12.687Z,19.42
2019-01-23T08:45:17.305Z,18.07
2019-01-23T08:46:21.940Z,17.65
2019-01-23T08:47:26.463Z,18.07
2019-01-23T08:48:31.015Z,17.05
2019-01-23T08:49:35.665Z,18.37
2019-01-23T08:50:41.014Z,18.87
2019-01-23T08:51:45.682Z,17.33
2019-01-23T08:52:50.275Z,17.53
2019-01-23T08:53:54.901Z,17.20
2019-01-23T08:54:59.474Z,17.57
2019-01-23T08:56:04.450Z,16.97
2019-01-23T08:57:08.919Z,18.30
2019-01-23T08:58:13.447Z,17.98
2019-01-23T08:59:17.987Z,17.48
2019-01-23T09:00:22.490Z,17.67
2019-01-23T09:01:27.042Z,17.92
2019-01-23T09:02:31.559Z,17.50
2019-01-23T09:03:36.320Z,16.57
2019-01-23T09:04:40.867Z,15.68
2019-01-23T09:05:45.426Z,17.55
2019-01-23T09:06:50.576Z,17.75
2019-01-23T09:07:55.182Z,18.10
2019-01-23T09:09:01.104Z,18.27
2019-01-23T09:10:25.733Z,17.45
2019-01-23T09:11:32.117Z,15.68
2019-01-23T09:12:36.679Z,16.90
2019-01-23T09:13:42.876Z,16.95
2019-01-23T09:14:47.705Z,17.57
2019-01-23T09:15:52.193Z,18.50
2019-01-23T09:16:56.733Z,17.67
2019-01-23T09:18:01.354Z,16.57
2019-01-23T09:19:08.126Z,17.12
2019-01-23T09:20:15.501Z,17.85
2019-01-23T09:21:20.029Z,19.15
2019-01-23T09:22:24.538Z,16.87
2019-01-23T09:23:29.098Z,17.70
2019-01-23T09:24:35.316Z,17.20
2019-01-23T09:25:41.109Z,16.27
2019-01-23T09:26:45.577Z,16.47
2019-01-23T09:27:50.162Z,18.73
2019-01-23T09:28:54.679Z,18.00
2019-01-23T09:30:02.071Z,16.83
2019-01-23T09:31:15.386Z,17.43
2019-01-23T09:32:23.009Z,16.70
2019-01-23T09:33:30.665Z,16.05
2019-01-23T09:34:41.273Z,18.17
2019-01-23T09:36:00.955Z,17.20
2019-01-23T09:37:12.841Z,16.57
2019-01-23T09:38:26.309Z,17.62
2019-01-23T09:39:43.041Z,16.32
2019-01-23T09:40:50.643Z,15.45
2019-01-23T09:42:16.285Z,15.65
2019-01-23T09:43:47.849Z,17.30
2019-01-23T09:45:18.261Z,15.70
2019-01-23T09:46:37.671Z,15.57
2019-01-23T09:47:54.107Z,16.12
2019-01-23T09:49:04.484Z,15.35
2019-01-23T09:50:31.329Z,15.17
2019-01-23T09:51:38.945Z,16.17
2019-01-23T09:52:49.155Z,15.07
2019-01-23T09:53:56.783Z,15.83
2019-01-23T09:55:01.509Z,16.50
2019-01-23T09:56:06.102Z,17.65
2019-01-23T09:57:11.062Z,17.98
2019-01-23T09:58:15.568Z,16.87
2019-01-23T09:59:20.053Z,17.53
2019-01-23T10:00:27.294Z,15.93
2019-01-23T10:01:31.819Z,16.50
2019-01-23T10:02:36.329Z,17.07
2019-01-23T10:03:40.885Z,16.27
2019-01-23T10:04:45.396Z,16.20
2019-01-23T10:05:49.900Z,16.87
2019-01-23T10:06:54.430Z,17.03
2019-01-23T10:08:01.369Z,16.50
2019-01-23T10:09:08.218Z,16.93
2019-01-23T10:10:15.820Z,16.32
2019-01-23T10:11:20.357Z,16.87
2019-01-23T10:12:24.892Z,17.23
2019-01-23T10:13:29.522Z,17.45
2019-01-23T10:14:34.054Z,17.70
2019-01-23T10:15:42.232Z,16.93
2019-01-23T10:16:46.762Z,17.05
2019-01-23T10:17:51.360Z,19.50
2019-01-23T10:18:56.345Z,18.15
2019-01-23T10:20:00.999Z,18.25
2019-01-23T10:21:05.517Z,17.47
2019-01-23T10:22:10.087Z,18.40
2019-01-23T10:23:14.636Z,17.60
2019-01-23T10:24:19.750Z,17.42
2019-01-23T10:25:24.251Z,17.60
2019-01-23T10:26:28.768Z,18.23
2019-01-23T10:27:33.270Z,16.93
2019-01-23T10:28:37.825Z,16.30
2019-01-23T10:29:42.762Z,16.35
2019-01-23T10:30:47.422Z,17.35
2019-01-23T10:31:51.967Z,15.35
2019-01-23T10:32:58.058Z,17.23
2019-01-23T10:34:04.369Z,16.15
2019-01-23T10:35:12.125Z,16.45
2019-01-23T10:36:16.781Z,17.20
2019-01-23T10:37:21.306Z,16.90
2019-01-23T10:38:26.541Z,16.03
2019-01-23T10:39:31.038Z,16.90
2019-01-23T10:40:35.645Z,16.77
2019-01-23T10:41:40.221Z,16.40
2019-01-23T10:42:44.773Z,17.23
2019-01-23T10:43:49.264Z,15.60
2019-01-23T10:44:54.343Z,16.60
2019-01-23T10:45:58.877Z,17.00
2019-01-23T10:47:03.440Z,16.30
2019-01-23T10:48:08.032Z,17.23
2019-01-23T10:49:13.073Z,17.13
2019-01-23T10:50:17.804Z,16.70
2019-01-23T10:51:22.923Z,16.00
2019-01-23T10:52:27.483Z,16.57
2019-01-23T10:53:32.026Z,16.32
2019-01-23T10:54:36.629Z,16.27
2019-01-23T10:55:41.170Z,17.10
2019-01-23T10:56:45.677Z,16.63
2019-01-23T10:57:50.183Z,16.53
2019-01-23T10:58:54.716Z,15.67
2019-01-23T10:59:59.227Z,15.43
2019-01-23T11:01:04.577Z,15.43
2019-01-23T11:02:09.157Z,16.27
2019-01-23T11:03:13.653Z,17.37
2019-01-23T11:04:18.346Z,16.80
2019-01-23T11:05:24.481Z,17.37
2019-01-23T11:06:29.037Z,16.30
2019-01-23T11:07:33.678Z,15.00
2019-01-23T11:08:40.233Z,17.33
2019-01-23T11:09:44.792Z,16.65
2019-01-23T11:10:49.304Z,15.55
2019-01-23T11:11:53.867Z,16.60
2019-01-23T11:12:58.450Z,16.10
2019-01-23T11:14:03.060Z,15.68
2019-01-23T11:15:08.072Z,16.17
2019-01-23T11:16:12.687Z,15.88
2019-01-23T11:17:17.186Z,16.43
2019-01-23T11:18:21.789Z,18.00
2019-01-23T11:19:26.392Z,16.00
2019-01-23T11:20:30.905Z,15.40
2019-01-23T11:21:35.412Z,15.97
2019-01-23T11:22:40.001Z,16.90
2019-01-23T11:23:44.502Z,16.00
2019-01-23T11:24:49.100Z,16.60
2019-01-23T11:25:53.707Z,16.63
2019-01-23T11:26:58.250Z,16.12
2019-01-23T11:28:02.965Z,17.03
2019-01-23T11:29:07.544Z,16.20
2019-01-23T11:30:24.128Z,15.43
2019-01-23T11:31:28.716Z,15.10
2019-01-23T11:32:35.591Z,15.58
2019-01-23T11:33:40.097Z,15.73
2019-01-23T11:34:44.618Z,15.93
2019-01-23T11:35:49.324Z,15.83
2019-01-23T11:36:53.847Z,15.30
2019-01-23T11:37:58.385Z,15.95
2019-01-23T11:39:03.866Z,16.30
2019-01-23T11:40:17.214Z,15.30
2019-01-23T11:41:21.824Z,15.10
2019-01-23T11:42:26.465Z,15.10
2019-01-23T11:43:31.025Z,15.97
2019-01-23T11:44:36.527Z,15.18
2019-01-23T11:45:42.222Z,15.78
2019-01-23T11:46:46.815Z,15.13
2019-01-23T11:47:51.694Z,15.88
2019-01-23T11:48:56.222Z,15.83
2019-01-23T11:50:00.747Z,16.27
2019-01-23T11:51:05.495Z,16.62
2019-01-23T11:52:10.005Z,16.33
2019-01-23T11:53:16.107Z,16.52
2019-01-23T11:54:20.653Z,16.53
2019-01-23T11:55:25.253Z,16.23
2019-01-23T11:56:29.822Z,15.53
2019-01-23T11:57:34.364Z,15.67
2019-01-23T11:58:39.109Z,16.45
2019-01-23T11:59:44.910Z,16.27
2019-01-23T12:00:49.389Z,15.33
2019-01-23T12:01:53.938Z,15.88
2019-01-23T12:02:58.434Z,15.27
2019-01-23T12:04:02.997Z,15.00
2019-01-23T12:05:10.549Z,14.95
2019-01-23T12:06:17.130Z,15.13
2019-01-23T12:07:21.411Z,15.20
2019-01-23T12:08:25.934Z,14.50
2019-01-23T12:09:30.516Z,14.68
2019-01-23T12:10:36.115Z,14.57
2019-01-23T12:11:40.730Z,15.00
2019-01-23T12:12:45.492Z,15.47
2019-01-23T12:13:50.028Z,15.58
2019-01-23T12:14:54.599Z,15.32
2019-01-23T12:15:59.226Z,16.07
2019-01-23T12:17:03.891Z,15.80
2019-01-23T12:18:08.382Z,15.87
2019-01-23T12:19:12.947Z,14.27
2019-01-23T12:20:17.806Z,16.23
2019-01-23T12:21:22.383Z,15.47
2019-01-23T12:22:26.902Z,16.23
2019-01-23T12:23:31.487Z,16.93
2019-01-23T12:24:36.080Z,15.83
2019-01-23T12:25:42.743Z,14.95
2019-01-23T12:26:47.623Z,16.15
2019-01-23T12:27:52.156Z,16.48
2019-01-23T12:28:56.783Z,15.72
2019-01-23T12:30:01.451Z,16.10
2019-01-23T12:31:06.040Z,16.33
2019-01-23T12:32:10.726Z,15.23
2019-01-23T12:33:15.239Z,15.67
2019-01-23T12:34:19.823Z,16.13
2019-01-23T12:35:24.311Z,15.90
2019-01-23T12:36:29.000Z,14.80
2019-01-23T12:37:33.579Z,14.30
2019-01-23T12:38:38.122Z,15.70
2019-01-23T12:39:42.644Z,14.83
2019-01-23T12:40:47.171Z,15.47
2019-01-23T12:41:51.653Z,14.47
2019-01-23T12:42:56.255Z,14.43
2019-01-23T12:44:00.751Z,15.20
2019-01-23T12:45:09.071Z,15.53
2019-01-23T12:46:13.601Z,15.50
2019-01-23T12:47:18.134Z,14.83
2019-01-23T12:48:22.690Z,15.18
2019-01-23T12:49:27.208Z,15.63
2019-01-23T12:50:32.228Z,14.13
2019-01-23T12:51:36.956Z,14.93
2019-01-23T12:52:41.446Z,15.67
2019-01-23T12:53:46.003Z,14.70
2019-01-23T12:54:50.507Z,13.77
2019-01-23T12:55:55.033Z,14.85
2019-01-23T12:56:59.552Z,14.47
2019-01-23T12:58:04.236Z,14.03
2019-01-23T12:59:08.760Z,14.93
2019-01-23T13:00:18.900Z,13.97
2019-01-23T13:01:23.497Z,14.23
2019-01-23T13:02:28.151Z,14.67
2019-01-23T13:03:32.709Z,14.03
2019-01-23T13:04:37.327Z,13.95
2019-01-23T13:05:41.995Z,13.70
2019-01-23T13:06:46.741Z,13.08
2019-01-23T13:07:51.778Z,13.48
2019-01-23T13:08:56.403Z,14.45
2019-01-23T13:10:00.948Z,14.35
2019-01-23T13:11:05.535Z,14.67
2019-01-23T13:12:10.382Z,14.47
2019-01-23T13:13:14.892Z,14.47
2019-01-23T13:14:19.444Z,14.25
2019-01-23T13:15:26.282Z,14.20
2019-01-23T13:16:30.829Z,14.90
2019-01-23T13:17:35.467Z,13.50
2019-01-23T13:18:40.046Z,13.93
2019-01-23T13:19:44.581Z,14.25
2019-01-23T13:20:49.102Z,14.60
2019-01-23T13:21:54.238Z,13.57
2019-01-23T13:22:58.735Z,15.20
2019-01-23T13:24:03.587Z,13.35
2019-01-23T13:25:11.201Z,14.68
2019-01-23T13:26:15.824Z,14.55
2019-01-23T13:27:20.341Z,15.15
2019-01-23T13:28:24.907Z,14.53
2019-01-23T13:29:29.519Z,13.45
2019-01-23T13:30:34.204Z,13.87
2019-01-23T13:31:39.915Z,13.90
2019-01-23T13:32:44.479Z,13.07
2019-01-23T13:33:49.084Z,13.85
2019-01-23T13:34:53.630Z,13.50
2019-01-23T13:35:58.196Z,14.70
2019-01-23T13:37:02.715Z,14.33
2019-01-23T13:38:10.627Z,13.67
2019-01-23T13:39:15.309Z,14.20
2019-01-23T13:40:22.957Z,14.73
2019-01-23T13:41:27.546Z,13.37
2019-01-23T13:42:32.055Z,14.50
2019-01-23T13:43:36.656Z,13.40
2019-01-23T13:44:41.698Z,14.43
2019-01-23T13:45:46.303Z,13.95
2019-01-23T13:46:51.101Z,13.53
2019-01-23T13:47:55.909Z,13.62
2019-01-23T13:49:00.507Z,13.50
2019-01-23T13:50:08.025Z,12.98
2019-01-23T13:51:12.714Z,13.75
2019-01-23T13:52:17.254Z,13.00
2019-01-23T13:53:22.011Z,13.40
2019-01-23T13:54:26.672Z,14.10
2019-01-23T13:55:31.331Z,13.27
2019-01-23T13:56:35.934Z,13.90
2019-01-23T13:57:40.486Z,14.73
2019-01-23T13:58:44.975Z,13.00
2019-01-23T13:59:49.563Z,13.40